createdAt,value
2018-07-20T04:49:13.967Z,2288.00
2018-07-20T06:27:41.690Z,6076.00
2018-07-20T06:28:44.369Z,6120.00
2018-07-20T06:41:15.079Z,6912.00
2018-07-20T06:42:13.199Z,6956.00
2018-07-20T06:43:29.092Z,6996.00
2018-07-20T06:46:00.302Z,7120.00
2018-07-20T06:49:54.658Z,7356.00
2018-07-20T06:50:56.614Z,7372.00
2018-07-20T06:53:43.524Z,7516.00
2018-07-20T06:54:48.554Z,7604.00
2018-07-20T06:55:45.918Z,7692.00
2018-07-20T07:05:48.718Z,8104.00
2018-07-20T07:11:55.711Z,8288.00
2018-07-20T07:12:53.841Z,8336.00
2018-07-20T07:21:16.449Z,8556.00
2018-07-20T07:22:17.397Z,8584.00
2018-07-20T07:23:13.280Z,8624.00
2018-07-20T07:24:17.303Z,8600.00
2018-07-20T07:25:15.496Z,8556.00
2018-07-20T07:27:33.591Z,8480.00
2018-07-20T07:30:11.586Z,8712.00
2018-07-20T07:31:17.733Z,8744.00
2018-07-20T07:32:22.787Z,8804.00
2018-07-20T07:33:11.265Z,8828.00
2018-07-20T07:34:10.896Z,8820.00
2018-07-20T07:35:09.834Z,8820.00
2018-07-20T07:36:10.944Z,8860.00
2018-07-20T07:37:10.478Z,8800.00
2018-07-20T07:38:08.669Z,8780.00
2018-07-20T07:39:08.060Z,8768.00
2018-07-20T07:40:08.186Z,8696.00
2018-07-20T07:41:08.408Z,8668.00
2018-07-20T07:42:08.719Z,8708.00
2018-07-20T07:43:08.549Z,8744.00
2018-07-20T07:44:08.724Z,8756.00
2018-07-20T07:45:08.875Z,8760.00
2018-07-20T07:46:09.050Z,8740.00
2018-07-20T07:47:09.385Z,8740.00
2018-07-20T07:48:09.571Z,8716.00
2018-07-20T07:49:09.902Z,8688.00
2018-07-20T07:50:09.959Z,8708.00
2018-07-20T07:51:09.920Z,8808.00
2018-07-20T07:52:10.109Z,8776.00
2018-07-20T07:53:10.312Z,8884.00
2018-07-20T07:54:10.644Z,8852.00
2018-07-20T07:55:10.765Z,8824.00
2018-07-20T07:56:11.149Z,8848.00
2018-07-20T07:57:11.151Z,8876.00
2018-07-20T07:58:11.287Z,8904.00
2018-07-20T07:59:11.585Z,8980.00
2018-07-20T08:00:11.702Z,9004.00
2018-07-20T08:01:23.535Z,9052.00
2018-07-20T08:02:15.112Z,9096.00
2018-07-20T08:03:17.965Z,9100.00
2018-07-20T08:04:15.184Z,9132.00
2018-07-20T08:05:15.559Z,9148.00
2018-07-20T08:06:13.585Z,9168.00
2018-07-20T08:07:12.973Z,9184.00
2018-07-20T08:08:13.279Z,9184.00
2018-07-20T08:09:13.227Z,9196.00
2018-07-20T08:10:15.248Z,9200.00
2018-07-20T08:11:14.375Z,9272.00
2018-07-20T08:12:14.169Z,9520.00
2018-07-20T08:13:14.667Z,9692.00
2018-07-20T08:14:15.688Z,9784.00
2018-07-20T08:15:15.936Z,9816.00
2018-07-20T08:16:14.980Z,9848.00
2018-07-20T08:17:40.228Z,9908.00
2018-07-20T08:19:25.864Z,10024.00
2018-07-20T08:25:02.471Z,10080.00
2018-07-20T08:26:55.005Z,10248.00
2018-07-20T08:31:56.475Z,10656.00
2018-07-20T08:36:09.088Z,10480.00
2018-07-20T08:39:44.410Z,10252.00
2018-07-20T08:40:48.299Z,10140.00
2018-07-20T08:41:49.343Z,9972.00
2018-07-20T08:42:45.787Z,9972.00
2018-07-20T08:43:42.593Z,9856.00
2018-07-20T08:44:44.490Z,9760.00
2018-07-20T08:45:42.327Z,9612.00
2018-07-20T08:46:41.852Z,9488.00
2018-07-20T08:47:40.768Z,9468.00
2018-07-20T08:48:40.959Z,9492.00
2018-07-20T08:49:41.123Z,9536.00
2018-07-20T08:50:41.505Z,9580.00
2018-07-20T08:51:41.644Z,9632.00
2018-07-20T08:52:42.225Z,9584.00
2018-07-20T08:53:41.901Z,9772.00
2018-07-20T08:54:42.435Z,9884.00
2018-07-20T08:55:42.405Z,9964.00
2018-07-20T08:56:42.411Z,10060.00
2018-07-20T08:57:42.617Z,10168.00
2018-07-20T08:58:42.994Z,10284.00
2018-07-20T08:59:43.454Z,10320.00
2018-07-20T09:00:43.139Z,10324.00
2018-07-20T09:01:43.438Z,10480.00
2018-07-20T09:02:44.577Z,10432.00
2018-07-20T09:03:44.512Z,10544.00
2018-07-20T09:04:44.238Z,10760.00
2018-07-20T09:05:44.233Z,10812.00
2018-07-20T09:06:44.303Z,10820.00
2018-07-20T09:07:44.539Z,10840.00
2018-07-20T09:08:44.810Z,10840.00
2018-07-20T09:09:44.980Z,10772.00
2018-07-20T09:10:45.482Z,10948.00
2018-07-20T09:11:45.305Z,10988.00
2018-07-20T09:12:46.127Z,10876.00
2018-07-20T09:14:45.766Z,11120.00
2018-07-20T09:15:45.950Z,11192.00
2018-07-20T09:16:46.397Z,11212.00
2018-07-20T09:17:46.339Z,11268.00
2018-07-20T09:18:46.751Z,11260.00
2018-07-20T09:19:46.821Z,11344.00
2018-07-20T09:20:47.258Z,11260.00
2018-07-20T09:21:47.257Z,11112.00
2018-07-20T09:22:47.908Z,11044.00
2018-07-20T09:23:47.501Z,11024.00
2018-07-20T09:24:47.846Z,10984.00
2018-07-20T09:25:48.343Z,11064.00
2018-07-20T09:26:48.491Z,10940.00
2018-07-20T09:27:48.544Z,10804.00
2018-07-20T09:28:48.409Z,10644.00
2018-07-20T09:29:48.568Z,10788.00
2018-07-20T09:30:48.929Z,10808.00
2018-07-20T09:31:49.761Z,10900.00
2018-07-20T09:32:49.582Z,11064.00
2018-07-20T09:33:49.809Z,11096.00
2018-07-20T09:34:49.515Z,11308.00
2018-07-20T09:35:50.398Z,11388.00
2018-07-20T09:36:50.184Z,11536.00
2018-07-20T09:37:50.171Z,11568.00
2018-07-20T09:38:50.381Z,11616.00
2018-07-20T09:39:52.451Z,11636.00
2018-07-20T09:40:50.844Z,11836.00
2018-07-20T09:41:51.119Z,11864.00
2018-07-20T09:42:51.164Z,12020.00
2018-07-20T09:43:51.081Z,12336.00
2018-07-20T09:44:51.257Z,12700.00
2018-07-20T09:45:51.399Z,12900.00
2018-07-20T09:46:51.635Z,13052.00
2018-07-20T09:47:52.674Z,13140.00
2018-07-20T09:48:51.984Z,13268.00
2018-07-20T09:49:52.194Z,13400.00
2018-07-20T09:50:52.792Z,13528.00
2018-07-20T09:51:52.563Z,13732.00
2018-07-20T09:52:52.716Z,13932.00
2018-07-20T09:53:52.888Z,14224.00
2018-07-20T09:54:53.043Z,16864.00
2018-07-20T09:55:53.174Z,20320.00
2018-07-20T09:56:53.343Z,23328.00
2018-07-20T09:57:53.590Z,27200.00
2018-07-20T09:58:53.731Z,28928.00
2018-07-20T09:59:54.035Z,29056.00
2018-07-20T10:00:54.573Z,25888.00
2018-07-20T10:01:54.358Z,24992.00
2018-07-20T10:02:54.498Z,27616.00
2018-07-20T10:03:54.975Z,31104.00
2018-07-20T10:04:56.219Z,33600.00
2018-07-20T10:05:55.176Z,33568.00
2018-07-20T10:06:55.292Z,34880.00
2018-07-20T10:07:55.470Z,34496.00
2018-07-20T10:08:55.551Z,36096.00
2018-07-20T10:09:55.925Z,36864.00
2018-07-20T10:10:55.912Z,36608.00
2018-07-20T10:11:56.216Z,36800.00
2018-07-20T10:12:56.640Z,37440.00
2018-07-20T10:13:56.714Z,37568.00
2018-07-20T10:14:56.893Z,39072.00
2018-07-20T10:15:57.068Z,38400.00
2018-07-20T10:16:57.261Z,38976.00
2018-07-20T10:17:57.368Z,36928.00
2018-07-20T10:18:57.831Z,35872.00
2018-07-20T10:19:57.950Z,37056.00
2018-07-20T10:20:58.062Z,39072.00
2018-07-20T10:21:58.341Z,39808.00
2018-07-20T10:22:58.331Z,39584.00
2018-07-20T10:23:58.415Z,40096.00
2018-07-20T10:24:58.549Z,39488.00
2018-07-20T10:25:58.838Z,39648.00
2018-07-20T10:26:58.931Z,39776.00
2018-07-20T10:27:59.202Z,41824.00
2018-07-20T10:28:59.309Z,41664.00
2018-07-20T10:29:59.396Z,43488.00
2018-07-20T10:30:59.584Z,44288.00
2018-07-20T10:31:59.813Z,44480.00
2018-07-20T10:33:00.227Z,44832.00
2018-07-20T10:34:00.294Z,45248.00
2018-07-20T10:35:00.346Z,30432.00
2018-07-20T10:36:00.573Z,20640.00
2018-07-20T10:37:00.743Z,41120.00
2018-07-20T10:38:01.035Z,43488.00
2018-07-20T10:39:01.072Z,41376.00
2018-07-20T10:40:01.397Z,40512.00
2018-07-20T10:41:01.655Z,31808.00
2018-07-20T10:42:01.541Z,30880.00
2018-07-20T10:43:01.717Z,38304.00
2018-07-20T10:44:02.054Z,42848.00
2018-07-20T10:45:02.081Z,42624.00
2018-07-20T10:46:02.389Z,42048.00
2018-07-20T10:47:03.008Z,45248.00
2018-07-20T10:48:02.856Z,42272.00
2018-07-20T10:49:03.194Z,29376.00
2018-07-20T10:50:03.555Z,20032.00
2018-07-20T10:51:17.011Z,21568.00
2018-07-20T10:52:06.652Z,22048.00
2018-07-20T10:53:08.972Z,24256.00
2018-07-20T10:54:08.835Z,38720.00
2018-07-20T10:55:06.892Z,38272.00
2018-07-20T10:56:04.607Z,29120.00
2018-07-20T10:57:04.952Z,44928.00
2018-07-20T10:58:04.694Z,38176.00
2018-07-20T10:59:04.879Z,40000.00
2018-07-20T11:00:05.128Z,43616.00
2018-07-20T11:01:05.297Z,42592.00
2018-07-20T11:02:05.495Z,43808.00
2018-07-20T11:03:05.842Z,41632.00
2018-07-20T11:04:05.936Z,38240.00
2018-07-20T11:05:05.980Z,33152.00
2018-07-20T11:06:06.360Z,32256.00
2018-07-20T11:07:06.447Z,35264.00
2018-07-20T11:08:06.529Z,37344.00
2018-07-20T11:09:06.894Z,36800.00
2018-07-20T11:10:07.074Z,37120.00
2018-07-20T11:11:07.120Z,36928.00
2018-07-20T11:12:07.441Z,34176.00
2018-07-20T11:13:07.462Z,36224.00
2018-07-20T11:14:07.775Z,37888.00
2018-07-20T11:15:07.971Z,34208.00
2018-07-20T11:16:08.149Z,30528.00
2018-07-20T11:17:08.260Z,28096.00
2018-07-20T11:18:08.591Z,27776.00
2018-07-20T11:19:08.776Z,30848.00
2018-07-20T11:20:08.861Z,30112.00
2018-07-20T11:21:09.372Z,29696.00
2018-07-20T11:22:09.240Z,25632.00
2018-07-20T11:23:09.468Z,27488.00
2018-07-20T11:24:09.641Z,28736.00
2018-07-20T11:25:09.892Z,25696.00
2018-07-20T11:26:10.051Z,32576.00
2018-07-20T11:27:10.366Z,34784.00
2018-07-20T11:28:10.503Z,31232.00
2018-07-20T11:29:10.659Z,36928.00
2018-07-20T11:30:10.925Z,36800.00
2018-07-20T11:31:11.147Z,36416.00
2018-07-20T11:32:11.453Z,34976.00
2018-07-20T11:33:11.504Z,32960.00
2018-07-20T11:34:11.683Z,31552.00
2018-07-20T11:35:11.779Z,31616.00
2018-07-20T11:36:11.887Z,32672.00
2018-07-20T11:37:12.061Z,34976.00
2018-07-20T11:38:12.407Z,36896.00
2018-07-20T11:39:12.668Z,36000.00
2018-07-20T11:40:12.813Z,37472.00
2018-07-20T11:41:13.337Z,37408.00
2018-07-20T11:42:13.076Z,37088.00
2018-07-20T11:43:13.375Z,38272.00
2018-07-20T11:44:13.597Z,40192.00
2018-07-20T11:45:13.797Z,40736.00
2018-07-20T11:46:13.942Z,42144.00
2018-07-20T11:47:14.038Z,41184.00
2018-07-20T11:48:14.282Z,40928.00
2018-07-20T11:49:14.308Z,41568.00
2018-07-20T11:50:14.590Z,44032.00
2018-07-20T11:51:14.725Z,44576.00
2018-07-20T11:52:14.920Z,46656.00
2018-07-20T11:53:15.251Z,48384.00
2018-07-20T11:54:15.190Z,47424.00
2018-07-20T11:55:15.334Z,49216.00
2018-07-20T11:56:15.609Z,50176.00
2018-07-20T11:57:15.730Z,48544.00
2018-07-20T11:58:15.916Z,49216.00
2018-07-20T11:59:16.160Z,48768.00
2018-07-20T12:00:16.312Z,48480.00
2018-07-20T12:01:16.538Z,48160.00
2018-07-20T12:02:16.682Z,49440.00
2018-07-20T12:03:16.892Z,48704.00
2018-07-20T12:04:17.063Z,47008.00
2018-07-20T12:05:17.252Z,45984.00
2018-07-20T12:06:17.454Z,42912.00
2018-07-20T12:07:17.541Z,43840.00
2018-07-20T12:08:17.772Z,42112.00
2018-07-20T12:09:17.941Z,41984.00
2018-07-20T12:10:18.057Z,38304.00
2018-07-20T12:11:18.243Z,37856.00
2018-07-20T12:12:18.456Z,36512.00
2018-07-20T12:13:18.607Z,37408.00
2018-07-20T12:14:18.896Z,37888.00
2018-07-20T12:15:18.944Z,38336.00
2018-07-20T12:16:19.224Z,40960.00
2018-07-20T12:17:19.341Z,43872.00
2018-07-20T12:18:19.638Z,43712.00
2018-07-20T12:19:19.863Z,45824.00
2018-07-20T12:20:20.011Z,47168.00
2018-07-20T12:21:20.237Z,46560.00
2018-07-20T12:22:20.490Z,43584.00
2018-07-20T12:23:20.643Z,37440.00
2018-07-20T12:24:20.903Z,28192.00
2018-07-20T12:25:21.264Z,25888.00
2018-07-20T12:26:21.301Z,25088.00
2018-07-20T12:27:21.355Z,25472.00
2018-07-20T12:28:21.712Z,30624.00
2018-07-20T12:29:21.913Z,31680.00
2018-07-20T12:30:21.974Z,36416.00
2018-07-20T12:31:22.299Z,34688.00
2018-07-20T12:32:22.423Z,35328.00
2018-07-20T12:33:22.598Z,36352.00
2018-07-20T12:34:22.662Z,38624.00
2018-07-20T12:35:22.919Z,37920.00
2018-07-20T12:36:23.089Z,41024.00
2018-07-20T12:37:23.230Z,41568.00
2018-07-20T12:38:23.466Z,41792.00
2018-07-20T12:39:23.672Z,43168.00
2018-07-20T12:40:23.970Z,44480.00
2018-07-20T12:41:24.036Z,44320.00
2018-07-20T12:42:24.311Z,44192.00
2018-07-20T12:43:24.517Z,42464.00
2018-07-20T12:44:24.711Z,43584.00
2018-07-20T12:45:24.770Z,40992.00
2018-07-20T12:46:25.029Z,51104.00
2018-07-20T12:47:25.295Z,48064.00
2018-07-20T12:48:25.422Z,47712.00
2018-07-20T12:49:25.555Z,48448.00
2018-07-20T12:50:25.859Z,48576.00
2018-07-20T12:51:25.995Z,46688.00
2018-07-20T12:52:26.145Z,47616.00
2018-07-20T12:53:26.385Z,49440.00
2018-07-20T12:54:26.601Z,50080.00
2018-07-20T12:55:26.748Z,49312.00
2018-07-20T12:56:26.975Z,49344.00
2018-07-20T12:57:27.177Z,49184.00
2018-07-20T12:58:27.469Z,46016.00
2018-07-20T12:59:27.674Z,44864.00
2018-07-20T13:00:27.708Z,39936.00
2018-07-20T13:01:27.908Z,40480.00
2018-07-20T13:02:28.067Z,42592.00
2018-07-20T13:03:28.266Z,41856.00
2018-07-20T13:04:28.405Z,54176.00
2018-07-20T13:05:28.570Z,52416.00
2018-07-20T13:06:29.336Z,52928.00
2018-07-20T13:07:29.229Z,46208.00
2018-07-20T13:08:29.224Z,46144.00
2018-07-20T13:09:29.417Z,46336.00
2018-07-20T13:10:29.629Z,42880.00
2018-07-20T13:11:29.751Z,32576.00
2018-07-20T13:12:29.967Z,34176.00
2018-07-20T13:13:30.290Z,34528.00
2018-07-20T13:14:30.280Z,36960.00
2018-07-20T13:15:30.466Z,40576.00
2018-07-20T13:16:30.598Z,42144.00
2018-07-20T13:17:30.844Z,44256.00
2018-07-20T13:18:30.979Z,51648.00
2018-07-20T13:19:31.172Z,48032.00
2018-07-20T13:20:31.285Z,41216.00
2018-07-20T13:21:31.738Z,35872.00
2018-07-20T13:22:31.772Z,41408.00
2018-07-20T13:23:32.132Z,40256.00
2018-07-20T13:24:32.153Z,40704.00
2018-07-20T13:25:32.293Z,41184.00
2018-07-20T13:26:32.453Z,38208.00
2018-07-20T13:27:32.584Z,38048.00
2018-07-20T13:28:32.763Z,34752.00
2018-07-20T13:29:32.952Z,32192.00
2018-07-20T13:30:33.321Z,25376.00
2018-07-20T13:31:33.324Z,23200.00
2018-07-20T13:32:33.391Z,21920.00
2018-07-20T13:33:33.600Z,21984.00
2018-07-20T13:34:33.885Z,24224.00
2018-07-20T13:35:34.067Z,26240.00
2018-07-20T13:36:34.301Z,25248.00
2018-07-20T13:37:34.343Z,26208.00
2018-07-20T13:38:34.629Z,26816.00
2018-07-20T13:39:34.707Z,29216.00
2018-07-20T13:40:34.959Z,29440.00
2018-07-20T13:41:35.134Z,29088.00
2018-07-20T13:42:35.347Z,29216.00
2018-07-20T13:43:35.441Z,31168.00
2018-07-20T13:44:35.639Z,31104.00
2018-07-20T13:45:35.819Z,31328.00
2018-07-20T13:46:35.967Z,29632.00
2018-07-20T13:47:36.273Z,27712.00
2018-07-20T13:48:36.332Z,28672.00
2018-07-20T13:49:36.599Z,29696.00
2018-07-20T13:50:36.757Z,30080.00
2018-07-20T13:51:36.879Z,34048.00
2018-07-20T13:52:37.420Z,34528.00
2018-07-20T13:53:37.373Z,31680.00
2018-07-20T13:54:37.675Z,32672.00
2018-07-20T13:55:37.722Z,31072.00
2018-07-20T13:56:37.842Z,31744.00
2018-07-20T13:57:38.204Z,31936.00
2018-07-20T13:58:38.320Z,29568.00
2018-07-20T13:59:38.449Z,35712.00
2018-07-20T14:00:38.624Z,31456.00
2018-07-20T14:01:38.798Z,49216.00
2018-07-20T14:02:39.075Z,52320.00
2018-07-20T14:03:39.148Z,48928.00
2018-07-20T14:04:39.435Z,46208.00
2018-07-20T14:05:39.499Z,49728.00
2018-07-20T14:06:39.655Z,57216.00
2018-07-20T14:07:39.911Z,60032.00
2018-07-20T14:08:40.070Z,62016.00
2018-07-20T14:09:40.280Z,60128.00
2018-07-20T14:10:40.480Z,63168.00
2018-07-20T14:11:40.540Z,62592.00
2018-07-20T14:12:40.810Z,63936.00
2018-07-20T14:13:40.966Z,63488.00
2018-07-20T14:14:41.183Z,58112.00
2018-07-20T14:15:41.283Z,57472.00
2018-07-20T14:16:41.546Z,61024.00
2018-07-20T14:17:41.777Z,63680.00
2018-07-20T14:18:41.971Z,62656.00
2018-07-20T14:19:42.228Z,62464.00
2018-07-20T14:20:42.285Z,60416.00
2018-07-20T14:21:42.520Z,61472.00
2018-07-20T14:22:42.678Z,57184.00
2018-07-20T14:23:42.932Z,61920.00
2018-07-20T14:24:42.976Z,61952.00
2018-07-20T14:25:43.352Z,63456.00
2018-07-20T14:26:43.569Z,60864.00
2018-07-20T14:27:43.646Z,62272.00
2018-07-20T14:28:43.789Z,62176.00
2018-07-20T14:29:44.043Z,58912.00
2018-07-20T14:30:44.235Z,56896.00
2018-07-20T14:31:44.572Z,57472.00
2018-07-20T14:32:44.526Z,59424.00
2018-07-20T14:33:44.744Z,60896.00
2018-07-20T14:34:44.989Z,60096.00
2018-07-20T14:35:45.241Z,58304.00
2018-07-20T14:36:45.401Z,61056.00
2018-07-20T14:37:45.591Z,63328.00
2018-07-20T14:38:45.802Z,58976.00
2018-07-20T14:39:45.952Z,59616.00
2018-07-20T14:40:46.086Z,56960.00
2018-07-20T14:41:46.279Z,55904.00
2018-07-20T14:42:46.507Z,55072.00
2018-07-20T14:43:46.713Z,55168.00
2018-07-20T14:44:46.854Z,53664.00
2018-07-20T14:45:47.096Z,51840.00
2018-07-20T14:46:47.165Z,52288.00
2018-07-20T14:47:47.580Z,52864.00
2018-07-20T14:48:47.644Z,55680.00
2018-07-20T14:49:47.837Z,55360.00
2018-07-20T14:50:47.968Z,55232.00
2018-07-20T14:51:48.127Z,58400.00
2018-07-20T14:52:48.306Z,56064.00
2018-07-20T14:53:48.424Z,56000.00
2018-07-20T14:54:48.810Z,55840.00
2018-07-20T14:55:49.029Z,59360.00
2018-07-20T14:56:49.075Z,59488.00
2018-07-20T14:57:49.172Z,57088.00
2018-07-20T14:58:49.485Z,60352.00
2018-07-20T14:59:49.610Z,62112.00
2018-07-20T15:00:49.850Z,60064.00
2018-07-20T15:01:50.021Z,53088.00
2018-07-20T15:02:50.134Z,52096.00
2018-07-20T15:03:50.329Z,45984.00
2018-07-20T15:04:50.470Z,52544.00
2018-07-20T15:05:50.633Z,55616.00
2018-07-20T15:06:51.009Z,49760.00
2018-07-20T15:07:51.060Z,54432.00
2018-07-20T15:08:51.329Z,52448.00
2018-07-20T15:09:51.367Z,53600.00
2018-07-20T15:10:51.618Z,56608.00
2018-07-20T15:11:51.831Z,57664.00
2018-07-20T15:12:51.967Z,55360.00
2018-07-20T15:13:52.246Z,57216.00
2018-07-20T15:14:52.373Z,55008.00
2018-07-20T15:15:52.535Z,52640.00
2018-07-20T15:16:52.811Z,49824.00
2018-07-20T15:17:52.925Z,49792.00
2018-07-20T15:18:53.120Z,48352.00
2018-07-20T15:19:53.276Z,46880.00
2018-07-20T15:20:53.527Z,43680.00
2018-07-20T15:21:53.596Z,41344.00
2018-07-20T15:22:53.830Z,39360.00
2018-07-20T15:23:54.048Z,39040.00
2018-07-20T15:24:54.321Z,40192.00
2018-07-20T15:25:54.390Z,41376.00
2018-07-20T15:26:54.680Z,41920.00
2018-07-20T15:27:54.862Z,42240.00
2018-07-20T15:28:54.906Z,43040.00
2018-07-20T15:29:55.139Z,41280.00
2018-07-20T15:30:55.484Z,37408.00
2018-07-20T15:31:55.629Z,31712.00
2018-07-20T15:32:55.831Z,34848.00
2018-07-20T15:33:55.964Z,39968.00
2018-07-20T15:34:56.189Z,45408.00
2018-07-20T15:35:56.400Z,44416.00
2018-07-20T15:36:56.557Z,43424.00
2018-07-20T15:37:56.639Z,43776.00
2018-07-20T15:38:56.804Z,42048.00
2018-07-20T15:39:57.149Z,39392.00
2018-07-20T15:40:57.320Z,34112.00
2018-07-20T15:41:57.496Z,27328.00
2018-07-20T15:42:57.587Z,24672.00
2018-07-20T15:43:57.849Z,28864.00
2018-07-20T15:44:58.099Z,29792.00
2018-07-20T15:46:05.966Z,31840.00
2018-07-20T15:46:58.593Z,32064.00
2018-07-20T15:47:58.601Z,35040.00
2018-07-20T15:48:58.855Z,36992.00
2018-07-20T15:49:59.024Z,35264.00
2018-07-20T15:50:59.133Z,34144.00
2018-07-20T15:53:59.801Z,28064.00
2018-07-20T15:55:00.023Z,27072.00
2018-07-20T15:56:00.253Z,29504.00
2018-07-20T15:57:00.331Z,35392.00
2018-07-20T15:58:00.489Z,36224.00
2018-07-20T15:59:00.637Z,35264.00
2018-07-20T16:00:00.904Z,37120.00
2018-07-20T16:01:01.022Z,37056.00
2018-07-20T16:02:01.232Z,35200.00
2018-07-20T16:03:01.399Z,35040.00
2018-07-20T16:04:01.705Z,35968.00
2018-07-20T16:05:01.829Z,36128.00
2018-07-20T16:06:02.072Z,34624.00
2018-07-20T16:07:02.111Z,33472.00
2018-07-20T16:08:02.325Z,34368.00
2018-07-20T16:09:02.456Z,29056.00
2018-07-20T16:10:02.706Z,27136.00
2018-07-20T16:11:02.835Z,31552.00
2018-07-20T16:12:03.023Z,15840.00
2018-07-20T16:13:03.165Z,31040.00
2018-07-20T16:14:03.393Z,31456.00
2018-07-20T16:15:03.529Z,30560.00
2018-07-20T16:16:03.819Z,30688.00
2018-07-20T16:17:03.965Z,30912.00
2018-07-20T16:18:04.135Z,30048.00
2018-07-20T16:19:04.279Z,31264.00
2018-07-20T16:20:04.485Z,31968.00
2018-07-20T16:21:04.603Z,29824.00
2018-07-20T16:22:04.934Z,30720.00
2018-07-20T16:23:04.975Z,29920.00
2018-07-20T16:24:05.237Z,28000.00
2018-07-20T16:25:05.408Z,27168.00
2018-07-20T16:26:05.639Z,28768.00
2018-07-20T16:27:05.797Z,29440.00
2018-07-20T16:28:05.901Z,29664.00
2018-07-20T16:29:06.131Z,27488.00
2018-07-20T16:30:06.222Z,28672.00
2018-07-20T16:31:06.434Z,28256.00
2018-07-20T16:32:06.720Z,22144.00
2018-07-20T16:33:06.868Z,23264.00
2018-07-20T16:34:07.063Z,25376.00
2018-07-20T16:35:07.221Z,24608.00
2018-07-20T16:36:07.416Z,22048.00
2018-07-20T16:37:07.517Z,21920.00
2018-07-20T16:38:07.778Z,26464.00
2018-07-20T16:39:07.971Z,26912.00
2018-07-20T16:40:08.126Z,26400.00
2018-07-20T16:42:08.427Z,25120.00
2018-07-20T16:43:08.579Z,22400.00
2018-07-20T16:44:08.840Z,17344.00
2018-07-20T16:45:09.195Z,15296.00
2018-07-20T16:46:09.151Z,11792.00
2018-07-20T16:47:09.424Z,8212.00
2018-07-20T16:48:09.581Z,7376.00
2018-07-20T16:49:09.771Z,7240.00
2018-07-20T16:50:09.909Z,7160.00
2018-07-20T16:51:10.135Z,7080.00
2018-07-20T16:52:10.203Z,6996.00
2018-07-20T16:53:10.464Z,6920.00
2018-07-20T16:54:10.646Z,6768.00
2018-07-20T16:55:10.780Z,6616.00
2018-07-20T16:56:10.955Z,6524.00
2018-07-20T16:57:11.091Z,6480.00
2018-07-20T16:58:11.287Z,6424.00
2018-07-20T16:59:11.485Z,6360.00
2018-07-20T17:00:11.611Z,6288.00
2018-07-20T17:01:11.868Z,6248.00
2018-07-20T17:02:12.018Z,6280.00
2018-07-20T17:03:12.188Z,6912.00
2018-07-20T17:04:12.416Z,6452.00
2018-07-20T17:05:12.537Z,5912.00
2018-07-20T17:06:12.710Z,5812.00
2018-07-20T17:07:12.942Z,5748.00
2018-07-20T17:08:13.036Z,5712.00
2018-07-20T17:09:13.258Z,5636.00
2018-07-20T17:10:13.445Z,5552.00
2018-07-20T17:11:13.608Z,5508.00
2018-07-20T17:12:13.815Z,5448.00
2018-07-20T17:13:13.957Z,5356.00
2018-07-20T17:14:14.138Z,5312.00
2018-07-20T17:15:14.279Z,5236.00
2018-07-20T17:16:14.483Z,5140.00
2018-07-20T17:17:14.737Z,5100.00
2018-07-20T17:18:14.930Z,5064.00
2018-07-20T17:19:15.107Z,5024.00
2018-07-20T17:20:15.219Z,4976.00
2018-07-20T17:21:15.392Z,4928.00
2018-07-20T17:22:15.600Z,4904.00
2018-07-20T17:23:15.749Z,4916.00
2018-07-20T17:24:15.936Z,4908.00
2018-07-20T17:25:16.042Z,4840.00
2018-07-20T17:26:16.282Z,4776.00
2018-07-20T17:27:16.402Z,4736.00
2018-07-20T17:28:16.736Z,4696.00
2018-07-20T17:29:16.819Z,4628.00
2018-07-20T17:30:16.934Z,4568.00
2018-07-20T17:31:17.129Z,4536.00
2018-07-20T17:32:17.272Z,4492.00
2018-07-20T17:33:17.455Z,4416.00
2018-07-20T17:34:17.674Z,4324.00
2018-07-20T17:35:17.890Z,4252.00
2018-07-20T17:36:18.124Z,4212.00
2018-07-20T17:37:18.257Z,4140.00
2018-07-20T17:38:18.367Z,4064.00
2018-07-20T17:39:18.502Z,4008.00
2018-07-20T17:40:18.765Z,3964.00
2018-07-20T17:41:18.850Z,3904.00
2018-07-20T17:42:19.144Z,3872.00
2018-07-20T17:43:19.568Z,3852.00
2018-07-20T17:44:19.469Z,3816.00
2018-07-20T17:45:19.644Z,3728.00
2018-07-20T17:46:19.856Z,3656.00
2018-07-20T17:47:19.950Z,3620.00
2018-07-20T17:48:20.102Z,3600.00
2018-07-20T17:49:20.356Z,3576.00
2018-07-20T17:50:20.574Z,3528.00
2018-07-20T17:51:20.747Z,3460.00
2018-07-20T17:52:20.903Z,3384.00
2018-07-20T17:53:21.103Z,3312.00
2018-07-20T17:54:21.247Z,3332.00
2018-07-20T17:55:21.432Z,3284.00
2018-07-20T17:56:21.567Z,3236.00
2018-07-20T17:57:21.693Z,3188.00
2018-07-20T17:58:21.970Z,3148.00
2018-07-20T17:59:22.085Z,3104.00
2018-07-20T18:00:22.255Z,3052.00
2018-07-20T18:01:22.364Z,3000.00
2018-07-20T18:02:22.775Z,2940.00
2018-07-20T18:03:22.981Z,2876.00
2018-07-20T18:04:23.099Z,2816.00
2018-07-20T18:05:23.164Z,2744.00
2018-07-20T18:06:23.389Z,2656.00
2018-07-20T18:07:23.553Z,2556.00
2018-07-20T18:08:23.708Z,2444.00
2018-07-20T18:09:23.847Z,2336.00
2018-07-20T18:10:24.115Z,2252.00
2018-07-20T18:11:24.174Z,2184.00
2018-07-20T18:12:24.362Z,2136.00
2018-07-20T18:13:24.698Z,2112.00
2018-07-20T18:14:24.904Z,2112.00
2018-07-20T18:15:24.968Z,2124.00
2018-07-20T18:16:25.150Z,2148.00
2018-07-20T18:17:25.524Z,2172.00
2018-07-20T18:18:28.343Z,2200.00
2018-07-20T18:25:26.145Z,2128.00
2018-07-20T18:27:31.555Z,2052.00
2018-07-20T18:28:28.316Z,2016.00
2018-07-20T18:30:37.144Z,1960.00
2018-07-20T18:34:23.102Z,1856.00
2018-07-20T18:35:27.987Z,1816.00
2018-07-20T18:36:21.480Z,1772.00
2018-07-20T18:38:21.042Z,1680.00
2018-07-20T18:39:20.157Z,1632.00
2018-07-20T18:40:20.227Z,1584.00
2018-07-20T18:41:20.403Z,1540.00
2018-07-20T18:42:20.569Z,1492.00
2018-07-20T18:43:20.745Z,1448.00
2018-07-20T18:44:20.884Z,1388.00
2018-07-20T18:45:21.013Z,1324.00
2018-07-20T18:46:21.179Z,1256.00
2018-07-20T18:47:21.383Z,1184.00
2018-07-20T18:48:21.575Z,1108.00
2018-07-20T18:49:22.025Z,1044.00
2018-07-20T18:50:21.902Z,988.00
2018-07-20T18:51:23.764Z,940.00
2018-07-20T18:52:22.331Z,900.00
2018-07-20T18:53:22.418Z,876.00
2018-07-20T18:54:22.540Z,848.00
2018-07-20T18:55:22.688Z,824.00
2018-07-20T18:56:23.337Z,800.00
2018-07-20T19:00:22.985Z,700.00
2018-07-20T19:01:23.950Z,672.00
2018-07-20T19:02:26.863Z,644.00
2018-07-20T19:03:23.959Z,608.00
2018-07-20T19:04:27.172Z,576.00
2018-07-20T19:05:27.596Z,544.00
2018-07-20T19:06:25.678Z,516.00
2018-07-20T19:07:25.484Z,488.00
2018-07-20T19:08:28.573Z,460.00
2018-07-20T19:09:36.576Z,436.00
2018-07-20T19:11:28.368Z,388.00
2018-07-20T19:12:25.132Z,360.00
2018-07-20T19:13:25.745Z,336.00
2018-07-20T19:14:29.836Z,312.00
2018-07-20T19:15:29.628Z,292.00
2018-07-20T19:16:34.095Z,268.00
2018-07-20T19:17:24.837Z,248.00
2018-07-20T19:18:23.989Z,236.00
2018-07-20T19:19:23.953Z,216.00
2018-07-20T19:20:24.160Z,196.00
2018-07-20T19:21:24.415Z,180.00
2018-07-20T19:22:24.630Z,164.00
2018-07-20T19:23:24.779Z,152.00
2018-07-20T19:24:24.931Z,136.00
2018-07-20T19:25:27.086Z,124.00
2018-07-20T19:26:25.396Z,116.00
2018-07-20T19:27:25.667Z,104.00
2018-07-20T19:28:25.820Z,96.00
2018-07-20T19:29:25.895Z,88.00
2018-07-20T19:30:26.168Z,80.00
2018-07-20T19:31:26.366Z,72.00
2018-07-20T19:32:26.366Z,68.00
2018-07-20T19:33:26.597Z,60.00
2018-07-20T19:34:26.870Z,56.00
2018-07-20T19:35:27.078Z,52.00
2018-07-20T19:36:27.374Z,48.00
2018-07-20T19:37:27.430Z,40.00
2018-07-20T19:38:27.670Z,36.00
2018-07-20T19:39:27.985Z,28.00
2018-07-20T19:40:28.025Z,28.00